Station History

Weather Underground - logo

Station Historical Data
Daily Summary for January 22, 2018 Units:  Both    English   Metric
« Previous Day
Next Day »
Daily Weekly Monthly Yearly Custom
  High: Low: Average:
Temperature: TemperatureF °F /  -17.8 °C 35.4 °F /  1.9 °C 46.2 °F /  7.9 °C
Dew Point: DewpointF °F /  -17.8 °C 33.5 °F /  0.8 °C 39.3 °F /  4.1 °C
Humidity: Humidity % 52 % 79 %
Wind Speed: WindSpeedMPH mph /  0 km/h - 0.5 mph /  0.8 km/h
Wind Gust: WindSpeedGustMPH mph /  0 km/h - -
Wind:- - SW
Pressure: PressureIn in /  0 hPa 30.29 in /  1025.6 hPa -
Precipitation: 0.00 in /  0 mm    
Historical Graphs
 
 
Tabular Data for January 22, 2018
Time Temperature Dew Point Pressure Wind Wind Speed Wind Gust Humidity Rainfall Rate (Hourly)
TemperatureF °F /  -17.8 °C DewpointF °F /  -17.8 °C PressureIn in /  0 hPa Calm     Humidity % HourlyPrecipIn in /  0 mm
00:04 38.3 °F /  3.5 °C 36.5 °F /  2.5 °C 30.40 in /  1029.3 hPa Calm     93 % 0.00 in /  0 mm
00:09 38.2 °F /  3.4 °C 36.4 °F /  2.4 °C 30.40 in /  1029.3 hPa Calm     93 % 0.00 in /  0 mm
00:14 38.3 °F /  3.5 °C 36.7 °F /  2.6 °C 30.40 in /  1029.3 hPa Calm     94 % 0.00 in /  0 mm
00:19 38.3 °F /  3.5 °C 36.7 °F /  2.6 °C 30.40 in /  1029.3 hPa Calm     94 % 0.00 in /  0 mm
00:24 38.2 °F /  3.4 °C 36.4 °F /  2.4 °C 30.40 in /  1029.3 hPa Calm     93 % 0.00 in /  0 mm
00:29 38.1 °F /  3.4 °C 36.5 °F /  2.5 °C 30.40 in /  1029.3 hPa Calm     94 % 0.00 in /  0 mm
00:34 38.0 °F /  3.3 °C 36.4 °F /  2.4 °C 30.40 in /  1029.3 hPa Calm     94 % 0.00 in /  0 mm
00:39 38.1 °F /  3.4 °C 36.5 °F /  2.5 °C 30.39 in /  1029 hPa Calm     94 % 0.00 in /  0 mm
00:49 37.9 °F /  3.3 °C 36.3 °F /  2.4 °C 30.39 in /  1029 hPa Calm     94 % 0.00 in /  0 mm
00:59 37.5 °F /  3.1 °C 35.9 °F /  2.2 °C 30.39 in /  1029 hPa Calm     94 % 0.00 in /  0 mm
01:09 37.3 °F /  2.9 °C 35.7 °F /  2.1 °C 30.40 in /  1029.3 hPa Calm     94 % 0.00 in /  0 mm
01:14 37.2 °F /  2.9 °C 35.6 °F /  2 °C 30.39 in /  1029 hPa Calm     94 % 0.00 in /  0 mm
01:19 37.5 °F /  3.1 °C 35.9 °F /  2.2 °C 30.40 in /  1029.3 hPa Calm     94 % 0.00 in /  0 mm
01:24 37.7 °F /  3.2 °C 36.1 °F /  2.3 °C 30.40 in /  1029.3 hPa Calm     94 % 0.00 in /  0 mm
01:29 38.0 °F /  3.3 °C 36.7 °F /  2.6 °C 30.40 in /  1029.3 hPa Calm     95 % 0.00 in /  0 mm
01:34 38.1 °F /  3.4 °C 36.5 °F /  2.5 °C 30.40 in /  1029.3 hPa Calm     94 % 0.00 in /  0 mm
01:39 38.3 °F /  3.5 °C 36.7 °F /  2.6 °C 30.40 in /  1029.3 hPa Calm     94 % 0.00 in /  0 mm
01:44 38.4 °F /  3.6 °C 36.8 °F /  2.7 °C 30.40 in /  1029.3 hPa Calm     94 % 0.00 in /  0 mm
01:49 38.2 °F /  3.4 °C 36.4 °F /  2.4 °C 30.40 in /  1029.3 hPa Calm     93 % 0.00 in /  0 mm
01:54 38.0 °F /  3.3 °C 36.2 °F /  2.3 °C 30.40 in /  1029.3 hPa Calm     93 % 0.00 in /  0 mm
01:59 37.8 °F /  3.2 °C 36.0 °F /  2.2 °C 30.40 in /  1029.3 hPa Calm     93 % 0.00 in /  0 mm
02:04 37.6 °F /  3.1 °C 35.8 °F /  2.1 °C 30.40 in /  1029.3 hPa Calm     93 % 0.00 in /  0 mm
02:09 37.5 °F /  3.1 °C 35.7 °F /  2.1 °C 30.40 in /  1029.3 hPa Calm     93 % 0.00 in /  0 mm
02:15 37.3 °F /  2.9 °C 35.2 °F /  1.8 °C 30.40 in /  1029.3 hPa Calm     92 % 0.00 in /  0 mm
02:20 37.2 °F /  2.9 °C 35.1 °F /  1.7 °C 30.40 in /  1029.3 hPa Calm     92 % 0.00 in /  0 mm
02:25 37.1 °F /  2.8 °C 35.3 °F /  1.8 °C 30.40 in /  1029.3 hPa Calm     93 % 0.00 in /  0 mm
02:30 37.0 °F /  2.8 °C 35.2 °F /  1.8 °C 30.40 in /  1029.3 hPa Calm     93 % 0.00 in /  0 mm
02:35 36.9 °F /  2.7 °C 35.1 °F /  1.7 °C 30.40 in /  1029.3 hPa Calm     93 % 0.00 in /  0 mm
02:45 36.7 °F /  2.6 °C 34.9 °F /  1.6 °C 30.39 in /  1029 hPa Calm     93 % 0.00 in /  0 mm
02:50 36.6 °F /  2.6 °C 34.8 °F /  1.6 °C 30.39 in /  1029 hPa Calm     93 % 0.00 in /  0 mm
02:55 36.5 °F /  2.5 °C 34.7 °F /  1.5 °C 30.39 in /  1029 hPa Calm     93 % 0.00 in /  0 mm
03:00 36.5 °F /  2.5 °C 34.7 °F /  1.5 °C 30.39 in /  1029 hPa Calm     93 % 0.00 in /  0 mm
03:05 36.4 °F /  2.4 °C 34.6 °F /  1.4 °C 30.39 in /  1029 hPa Calm     93 % 0.00 in /  0 mm
03:10 36.4 °F /  2.4 °C 34.6 °F /  1.4 °C 30.39 in /  1029 hPa Calm     93 % 0.00 in /  0 mm
03:15 36.5 °F /  2.5 °C 34.7 °F /  1.5 °C 30.39 in /  1029 hPa Calm     93 % 0.00 in /  0 mm
03:20 36.4 °F /  2.4 °C 34.6 °F /  1.4 °C 30.39 in /  1029 hPa Calm     93 % 0.00 in /  0 mm
03:25 36.4 °F /  2.4 °C 34.8 °F /  1.6 °C 30.39 in /  1029 hPa Calm     94 % 0.00 in /  0 mm
03:30 36.5 °F /  2.5 °C 34.9 °F /  1.6 °C 30.39 in /  1029 hPa Calm     94 % 0.00 in /  0 mm
03:35 36.6 °F /  2.6 °C 35.0 °F /  1.7 °C 30.39 in /  1029 hPa Calm     94 % 0.00 in /  0 mm
03:40 36.6 °F /  2.6 °C 35.0 °F /  1.7 °C 30.39 in /  1029 hPa Calm     94 % 0.00 in /  0 mm
03:45 36.7 °F /  2.6 °C 35.1 °F /  1.7 °C 30.39 in /  1029 hPa Calm     94 % 0.00 in /  0 mm
03:50 36.6 °F /  2.6 °C 35.0 °F /  1.7 °C 30.39 in /  1029 hPa Calm     94 % 0.00 in /  0 mm
03:55 36.5 °F /  2.5 °C 34.9 °F /  1.6 °C 30.38 in /  1028.7 hPa Calm     94 % 0.00 in /  0 mm
04:00 36.4 °F /  2.4 °C 34.8 °F /  1.6 °C 30.38 in /  1028.7 hPa Calm     94 % 0.00 in /  0 mm
04:05 36.4 °F /  2.4 °C 34.8 °F /  1.6 °C 30.38 in /  1028.7 hPa Calm     94 % 0.00 in /  0 mm
04:10 36.5 °F /  2.5 °C 34.9 °F /  1.6 °C 30.38 in /  1028.7 hPa Calm     94 % 0.00 in /  0 mm
04:15 36.6 °F /  2.6 °C 35.0 °F /  1.7 °C 30.38 in /  1028.7 hPa Calm     94 % 0.00 in /  0 mm
04:25 36.2 °F /  2.3 °C 34.6 °F /  1.4 °C 30.38 in /  1028.7 hPa Calm     94 % 0.00 in /  0 mm
04:30 35.7 °F /  2.1 °C 34.1 °F /  1.2 °C 30.38 in /  1028.7 hPa Calm     94 % 0.00 in /  0 mm
04:35 35.4 °F /  1.9 °C 33.6 °F /  0.9 °C 30.38 in /  1028.7 hPa Calm     93 % 0.00 in /  0 mm
04:41 35.6 °F /  2 °C 34.0 °F /  1.1 °C 30.39 in /  1029 hPa Calm     94 % 0.00 in /  0 mm
04:46 35.9 °F /  2.2 °C 34.3 °F /  1.3 °C 30.39 in /  1029 hPa Calm     94 % 0.00 in /  0 mm
04:56 36.1 °F /  2.3 °C 34.8 °F /  1.6 °C 30.39 in /  1029 hPa Calm     95 % 0.00 in /  0 mm
05:01 36.2 °F /  2.3 °C 34.9 °F /  1.6 °C 30.39 in /  1029 hPa Calm     95 % 0.00 in /  0 mm
05:06 36.0 °F /  2.2 °C 34.4 °F /  1.3 °C 30.38 in /  1028.7 hPa Calm     94 % 0.00 in /  0 mm
05:11 35.8 °F /  2.1 °C 34.2 °F /  1.2 °C 30.38 in /  1028.7 hPa Calm     94 % 0.00 in /  0 mm
05:16 35.8 °F /  2.1 °C 34.2 °F /  1.2 °C 30.38 in /  1028.7 hPa Calm     94 % 0.00 in /  0 mm
05:21 35.8 °F /  2.1 °C 34.5 °F /  1.4 °C 30.39 in /  1029 hPa Calm     95 % 0.00 in /  0 mm
05:26 35.7 °F /  2.1 °C 34.4 °F /  1.3 °C 30.39 in /  1029 hPa Calm     95 % 0.00 in /  0 mm
05:31 35.8 °F /  2.1 °C 34.5 °F /  1.4 °C 30.39 in /  1029 hPa Calm     95 % 0.00 in /  0 mm
05:36 36.3 °F /  2.4 °C 35.0 °F /  1.7 °C 30.40 in /  1029.3 hPa Calm     95 % 0.00 in /  0 mm
05:41 36.7 °F /  2.6 °C 35.4 °F /  1.9 °C 30.40 in /  1029.3 hPa Calm     95 % 0.00 in /  0 mm
05:46 36.8 °F /  2.7 °C 35.5 °F /  1.9 °C 30.40 in /  1029.3 hPa Calm     95 % 0.00 in /  0 mm
05:51 36.6 °F /  2.6 °C 35.3 °F /  1.8 °C 30.40 in /  1029.3 hPa Calm     95 % 0.00 in /  0 mm
05:56 36.3 °F /  2.4 °C 35.0 °F /  1.7 °C 30.40 in /  1029.3 hPa Calm     95 % 0.00 in /  0 mm
06:01 36.2 °F /  2.3 °C 34.6 °F /  1.4 °C 30.40 in /  1029.3 hPa Calm     94 % 0.00 in /  0 mm
06:06 36.4 °F /  2.4 °C 35.1 °F /  1.7 °C 30.41 in /  1029.7 hPa Calm     95 % 0.00 in /  0 mm
06:11 36.6 °F /  2.6 °C 35.3 °F /  1.8 °C 30.41 in /  1029.7 hPa Calm     95 % 0.00 in /  0 mm
06:21 36.6 °F /  2.6 °C 35.3 °F /  1.8 °C 30.41 in /  1029.7 hPa Calm     95 % 0.00 in /  0 mm
06:26 36.5 °F /  2.5 °C 34.9 °F /  1.6 °C 30.41 in /  1029.7 hPa Calm     94 % 0.00 in /  0 mm
06:31 36.4 °F /  2.4 °C 34.8 °F /  1.6 °C 30.40 in /  1029.3 hPa Calm     94 % 0.00 in /  0 mm
06:36 36.2 °F /  2.3 °C 34.6 °F /  1.4 °C 30.40 in /  1029.3 hPa Calm     94 % 0.00 in /  0 mm
06:41 36.5 °F /  2.5 °C 35.2 °F /  1.8 °C 30.41 in /  1029.7 hPa Calm     95 % 0.00 in /  0 mm
06:46 36.7 °F /  2.6 °C 35.4 °F /  1.9 °C 30.41 in /  1029.7 hPa Calm     95 % 0.00 in /  0 mm
06:56 36.6 °F /  2.6 °C 35.0 °F /  1.7 °C 30.41 in /  1029.7 hPa Calm     94 % 0.00 in /  0 mm
07:01 36.9 °F /  2.7 °C 35.6 °F /  2 °C 30.41 in /  1029.7 hPa Calm     95 % 0.00 in /  0 mm
07:06 36.9 °F /  2.7 °C 35.6 °F /  2 °C 30.40 in /  1029.3 hPa Calm     95 % 0.00 in /  0 mm
07:11 36.9 °F /  2.7 °C 35.3 °F /  1.8 °C 30.40 in /  1029.3 hPa Calm     94 % 0.00 in /  0 mm
07:16 36.8 °F /  2.7 °C 35.2 °F /  1.8 °C 30.40 in /  1029.3 hPa Calm     94 % 0.00 in /  0 mm
07:18 36.7 °F /  2.6 °C 34.9 °F /  1.6 °C 30.40 in /  1029.3 hPa Calm     93 % 0.00 in /  0 mm
07:23 36.0 °F /  2.2 °C 33.9 °F /  1.1 °C 30.40 in /  1029.3 hPa Calm     92 % 0.00 in /  0 mm
07:28 35.6 °F /  2 °C 33.5 °F /  0.8 °C 30.39 in /  1029 hPa Calm     92 % 0.00 in /  0 mm
07:33 35.5 °F /  1.9 °C 33.7 °F /  0.9 °C 30.40 in /  1029.3 hPa Calm     93 % 0.00 in /  0 mm
07:38 35.5 °F /  1.9 °C 33.7 °F /  0.9 °C 30.39 in /  1029 hPa Calm     93 % 0.00 in /  0 mm
07:43 35.6 °F /  2 °C 33.8 °F /  1 °C 30.40 in /  1029.3 hPa Calm     93 % 0.00 in /  0 mm
07:48 35.7 °F /  2.1 °C 33.9 °F /  1.1 °C 30.40 in /  1029.3 hPa Calm     93 % 0.00 in /  0 mm
07:53 36.1 °F /  2.3 °C 34.5 °F /  1.4 °C 30.40 in /  1029.3 hPa Calm     94 % 0.00 in /  0 mm
07:58 36.7 °F /  2.6 °C 35.1 °F /  1.7 °C 30.40 in /  1029.3 hPa Calm     94 % 0.00 in /  0 mm
08:03 37.1 °F /  2.8 °C 35.3 °F /  1.8 °C 30.40 in /  1029.3 hPa WNW 1.2 mph /  1.9 km/h   93 % 0.00 in /  0 mm
08:08 37.8 °F /  3.2 °C 36.0 °F /  2.2 °C 30.41 in /  1029.7 hPa Calm     93 % 0.00 in /  0 mm
08:13 38.6 °F /  3.7 °C 36.8 °F /  2.7 °C 30.41 in /  1029.7 hPa Calm     93 % 0.00 in /  0 mm
08:18 39.9 °F /  4.4 °C 38.3 °F /  3.5 °C 30.41 in /  1029.7 hPa Calm     94 % 0.00 in /  0 mm
08:23 41.7 °F /  5.4 °C 39.8 °F /  4.3 °C 30.41 in /  1029.7 hPa Calm     93 % 0.00 in /  0 mm
08:28 42.9 °F /  6.1 °C 40.2 °F /  4.6 °C 30.41 in /  1029.7 hPa Calm     90 % 0.00 in /  0 mm
08:33 43.7 °F /  6.5 °C 40.4 °F /  4.7 °C 30.41 in /  1029.7 hPa Calm     88 % 0.00 in /  0 mm
08:38 44.5 °F /  6.9 °C 40.9 °F /  4.9 °C 30.41 in /  1029.7 hPa Calm     87 % 0.00 in /  0 mm
08:43 45.3 °F /  7.4 °C 41.7 °F /  5.4 °C 30.41 in /  1029.7 hPa Calm     87 % 0.00 in /  0 mm
08:48 45.6 °F /  7.6 °C 41.4 °F /  5.2 °C 30.41 in /  1029.7 hPa Calm     85 % 0.00 in /  0 mm
08:53 46.7 °F /  8.2 °C 42.4 °F /  5.8 °C 30.41 in /  1029.7 hPa Calm     85 % 0.00 in /  0 mm
08:58 47.7 °F /  8.7 °C 42.8 °F /  6 °C 30.42 in /  1030 hPa SSE 1.2 mph /  1.9 km/h 1.2 mph /  1.9 km/h 83 % 0.00 in /  0 mm
09:03 48.4 °F /  9.1 °C 42.5 °F /  5.8 °C 30.42 in /  1030 hPa Calm     80 % 0.00 in /  0 mm
09:08 48.3 °F /  9.1 °C 42.1 °F /  5.6 °C 30.42 in /  1030 hPa Calm     79 % 0.00 in /  0 mm
09:13 47.8 °F /  8.8 °C 41.6 °F /  5.3 °C 30.42 in /  1030 hPa Calm     79 % 0.00 in /  0 mm
09:18 47.9 °F /  8.8 °C 42.0 °F /  5.6 °C 30.42 in /  1030 hPa Calm     80 % 0.00 in /  0 mm
09:23 47.9 °F /  8.8 °C 42.0 °F /  5.6 °C 30.42 in /  1030 hPa Calm     80 % 0.00 in /  0 mm
09:28 48.7 °F /  9.3 °C 42.5 °F /  5.8 °C 30.42 in /  1030 hPa SE 1.2 mph /  1.9 km/h 1.2 mph /  1.9 km/h 79 % 0.00 in /  0 mm
09:33 49.3 °F /  9.6 °C 42.1 °F /  5.6 °C 30.42 in /  1030 hPa SSE 1.2 mph /  1.9 km/h 1.2 mph /  1.9 km/h 76 % 0.00 in /  0 mm
09:38 50.0 °F /  10 °C 42.7 °F /  5.9 °C 30.42 in /  1030 hPa ESE 1.2 mph /  1.9 km/h 1.2 mph /  1.9 km/h 76 % 0.00 in /  0 mm
09:43 50.6 °F /  10.3 °C 43.3 °F /  6.3 °C 30.42 in /  1030 hPa SSE 1.0 mph /  1.6 km/h   76 % 0.00 in /  0 mm
09:48 51.4 °F /  10.8 °C 43.7 °F /  6.5 °C 30.42 in /  1030 hPa South 1.2 mph /  1.9 km/h   75 % 0.00 in /  0 mm
09:53 51.5 °F /  10.8 °C 43.5 °F /  6.4 °C 30.42 in /  1030 hPa Calm     74 % 0.00 in /  0 mm
09:58 51.8 °F /  11 °C 43.1 °F /  6.2 °C 30.42 in /  1030 hPa SE 1.2 mph /  1.9 km/h 1.2 mph /  1.9 km/h 72 % 0.00 in /  0 mm
10:03 52.2 °F /  11.2 °C 43.4 °F /  6.3 °C 30.42 in /  1030 hPa SE 2.3 mph /  3.7 km/h 2.3 mph /  3.7 km/h 72 % 0.00 in /  0 mm
10:08 52.4 °F /  11.3 °C 43.3 °F /  6.3 °C 30.42 in /  1030 hPa SSE 1.2 mph /  1.9 km/h 1.2 mph /  1.9 km/h 71 % 0.00 in /  0 mm
10:13 53.0 °F /  11.7 °C 43.5 °F /  6.4 °C 30.42 in /  1030 hPa Calm     70 % 0.00 in /  0 mm
10:18 53.6 °F /  12 °C 43.7 °F /  6.5 °C 30.42 in /  1030 hPa Calm     69 % 0.00 in /  0 mm
10:23 54.1 °F /  12.3 °C 43.4 °F /  6.3 °C 30.42 in /  1030 hPa SE 2.3 mph /  3.7 km/h 2.3 mph /  3.7 km/h 67 % 0.00 in /  0 mm
10:28 54.6 °F /  12.6 °C 43.9 °F /  6.6 °C 30.42 in /  1030 hPa South 1.2 mph /  1.9 km/h 1.2 mph /  1.9 km/h 67 % 0.00 in /  0 mm
10:33 55.0 °F /  12.8 °C 43.8 °F /  6.6 °C 30.42 in /  1030 hPa SSE 1.2 mph /  1.9 km/h 1.2 mph /  1.9 km/h 66 % 0.00 in /  0 mm
10:38 55.4 °F /  13 °C 43.8 °F /  6.6 °C 30.41 in /  1029.7 hPa ESE 2.3 mph /  3.7 km/h   65 % 0.00 in /  0 mm
10:43 55.4 °F /  13 °C 43.4 °F /  6.3 °C 30.41 in /  1029.7 hPa Calm   0.4 mph /  0.6 km/h 64 % 0.00 in /  0 mm
10:48 55.4 °F /  13 °C 43.4 °F /  6.3 °C 30.41 in /  1029.7 hPa Calm     64 % 0.00 in /  0 mm
10:53 55.4 °F /  13 °C 43.0 °F /  6.1 °C 30.41 in /  1029.7 hPa Calm   0.2 mph /  0.3 km/h 63 % 0.00 in /  0 mm
10:59 55.1 °F /  12.8 °C 42.7 °F /  5.9 °C 30.41 in /  1029.7 hPa Calm   0.1 mph /  0.2 km/h 63 % 0.00 in /  0 mm
11:04 55.5 °F /  13.1 °C 43.5 °F /  6.4 °C 30.41 in /  1029.7 hPa SSE 1.2 mph /  1.9 km/h   64 % 0.00 in /  0 mm
11:09 55.7 °F /  13.2 °C 42.9 °F /  6.1 °C 30.40 in /  1029.3 hPa SE 1.0 mph /  1.6 km/h   62 % 0.00 in /  0 mm
11:14 55.9 °F /  13.3 °C 42.6 °F /  5.9 °C 30.40 in /  1029.3 hPa West 2.3 mph /  3.7 km/h 2.3 mph /  3.7 km/h 61 % 0.00 in /  0 mm
11:19 55.9 °F /  13.3 °C 43.5 °F /  6.4 °C 30.40 in /  1029.3 hPa South 1.2 mph /  1.9 km/h   63 % 0.00 in /  0 mm
11:24 56.3 °F /  13.5 °C 43.4 °F /  6.3 °C 30.39 in /  1029 hPa SE 2.3 mph /  3.7 km/h 2.3 mph /  3.7 km/h 62 % 0.00 in /  0 mm
11:29 56.6 °F /  13.7 °C 42.9 °F /  6.1 °C 30.39 in /  1029 hPa Calm     60 % 0.00 in /  0 mm
11:34 56.7 °F /  13.7 °C 43.0 °F /  6.1 °C 30.39 in /  1029 hPa Calm     60 % 0.00 in /  0 mm
11:39 56.8 °F /  13.8 °C 43.1 °F /  6.2 °C 30.38 in /  1028.7 hPa SSW 1.2 mph /  1.9 km/h 1.2 mph /  1.9 km/h 60 % 0.00 in /  0 mm
11:44 57.2 °F /  14 °C 43.4 °F /  6.3 °C 30.38 in /  1028.7 hPa NW 2.0 mph /  3.2 km/h 2.0 mph /  3.2 km/h 60 % 0.00 in /  0 mm
11:49 56.8 °F /  13.8 °C 42.6 °F /  5.9 °C 30.38 in /  1028.7 hPa NNW 2.3 mph /  3.7 km/h 2.3 mph /  3.7 km/h 59 % 0.00 in /  0 mm
11:54 56.9 °F /  13.8 °C 43.2 °F /  6.2 °C 30.38 in /  1028.7 hPa SSE 3.5 mph /  5.6 km/h 3.5 mph /  5.6 km/h 60 % 0.00 in /  0 mm
11:59 57.2 °F /  14 °C 43.0 °F /  6.1 °C 30.38 in /  1028.7 hPa North 2.3 mph /  3.7 km/h 2.3 mph /  3.7 km/h 59 % 0.00 in /  0 mm
12:04 57.4 °F /  14.1 °C 43.2 °F /  6.2 °C 30.37 in /  1028.3 hPa Calm     59 % 0.00 in /  0 mm
12:09 57.7 °F /  14.3 °C 43.5 °F /  6.4 °C 30.37 in /  1028.3 hPa SSE 3.5 mph /  5.6 km/h 3.5 mph /  5.6 km/h 59 % 0.00 in /  0 mm
12:14 57.7 °F /  14.3 °C 43.0 °F /  6.1 °C 30.37 in /  1028.3 hPa North 1.2 mph /  1.9 km/h 1.2 mph /  1.9 km/h 58 % 0.00 in /  0 mm
12:19 57.8 °F /  14.3 °C 43.1 °F /  6.2 °C 30.36 in /  1028 hPa NW 2.3 mph /  3.7 km/h 2.3 mph /  3.7 km/h 58 % 0.00 in /  0 mm
12:24 58.2 °F /  14.6 °C 43.9 °F /  6.6 °C 30.36 in /  1028 hPa SE 1.2 mph /  1.9 km/h 1.2 mph /  1.9 km/h 59 % 0.00 in /  0 mm
12:29 58.0 °F /  14.4 °C 42.8 °F /  6 °C 30.36 in /  1028 hPa WNW 2.3 mph /  3.7 km/h 2.3 mph /  3.7 km/h 57 % 0.00 in /  0 mm
12:34 58.0 °F /  14.4 °C 43.7 °F /  6.5 °C 30.35 in /  1027.7 hPa ESE 3.5 mph /  5.6 km/h 3.5 mph /  5.6 km/h 59 % 0.00 in /  0 mm
12:39 58.5 °F /  14.7 °C 42.8 °F /  6 °C 30.35 in /  1027.7 hPa SE 3.5 mph /  5.6 km/h 3.5 mph /  5.6 km/h 56 % 0.00 in /  0 mm
12:44 58.7 °F /  14.8 °C 43.0 °F /  6.1 °C 30.35 in /  1027.7 hPa SSW 3.5 mph /  5.6 km/h 3.5 mph /  5.6 km/h 56 % 0.00 in /  0 mm
12:49 58.7 °F /  14.8 °C 43.5 °F /  6.4 °C 30.34 in /  1027.3 hPa ESE 3.5 mph /  5.6 km/h 3.5 mph /  5.6 km/h 57 % 0.00 in /  0 mm
12:54 59.0 °F /  15 °C 43.8 °F /  6.6 °C 30.34 in /  1027.3 hPa NNW 2.0 mph /  3.2 km/h 2.0 mph /  3.2 km/h 57 % 0.00 in /  0 mm
12:59 59.2 °F /  15.1 °C 43.0 °F /  6.1 °C 30.34 in /  1027.3 hPa NE 1.2 mph /  1.9 km/h 1.2 mph /  1.9 km/h 55 % 0.00 in /  0 mm
13:04 59.1 °F /  15.1 °C 42.9 °F /  6.1 °C 30.34 in /  1027.3 hPa North 3.0 mph /  4.8 km/h 3.0 mph /  4.8 km/h 55 % 0.00 in /  0 mm
13:09 59.0 °F /  15 °C 42.4 °F /  5.8 °C 30.34 in /  1027.3 hPa NNW 3.5 mph /  5.6 km/h 3.5 mph /  5.6 km/h 54 % 0.00 in /  0 mm
13:14 59.3 °F /  15.2 °C 42.2 °F /  5.7 °C 30.33 in /  1027 hPa WNW 2.0 mph /  3.2 km/h 2.0 mph /  3.2 km/h 53 % 0.00 in /  0 mm
13:19 58.9 °F /  14.9 °C 42.3 °F /  5.7 °C 30.33 in /  1027 hPa SSE 4.0 mph /  6.4 km/h 4.0 mph /  6.4 km/h 54 % 0.00 in /  0 mm
13:24 59.1 °F /  15.1 °C 42.0 °F /  5.6 °C 30.33 in /  1027 hPa North 2.3 mph /  3.7 km/h 2.3 mph /  3.7 km/h 53 % 0.00 in /  0 mm
13:29 59.2 °F /  15.1 °C 42.6 °F /  5.9 °C 30.33 in /  1027 hPa WNW 2.3 mph /  3.7 km/h 2.3 mph /  3.7 km/h 54 % 0.00 in /  0 mm
13:34 59.0 °F /  15 °C 42.8 °F /  6 °C 30.33 in /  1027 hPa WNW 2.3 mph /  3.7 km/h 2.3 mph /  3.7 km/h 55 % 0.00 in /  0 mm
13:39 59.1 °F /  15.1 °C 42.9 °F /  6.1 °C 30.33 in /  1027 hPa NW 2.3 mph /  3.7 km/h 2.3 mph /  3.7 km/h 55 % 0.00 in /  0 mm
13:44 58.7 °F /  14.8 °C 42.1 °F /  5.6 °C 30.32 in /  1026.6 hPa NNW 1.2 mph /  1.9 km/h 1.2 mph /  1.9 km/h 54 % 0.00 in /  0 mm
13:49 59.0 °F /  15 °C 42.8 °F /  6 °C 30.32 in /  1026.6 hPa WNW 2.3 mph /  3.7 km/h 2.3 mph /  3.7 km/h 55 % 0.00 in /  0 mm
13:54 59.6 °F /  15.3 °C 41.9 °F /  5.5 °C 30.32 in /  1026.6 hPa Calm     52 % 0.00 in /  0 mm
13:59 59.5 °F /  15.3 °C 41.9 °F /  5.5 °C 30.32 in /  1026.6 hPa WNW 2.3 mph /  3.7 km/h 2.3 mph /  3.7 km/h 52 % 0.00 in /  0 mm
14:04 59.3 °F /  15.2 °C 42.2 °F /  5.7 °C 30.32 in /  1026.6 hPa NW 3.5 mph /  5.6 km/h 3.5 mph /  5.6 km/h 53 % 0.00 in /  0 mm
14:09 59.6 °F /  15.3 °C 42.4 °F /  5.8 °C 30.32 in /  1026.6 hPa SSE 3.5 mph /  5.6 km/h 3.5 mph /  5.6 km/h 53 % 0.00 in /  0 mm
14:14 59.7 °F /  15.4 °C 42.5 °F /  5.8 °C 30.31 in /  1026.3 hPa ESE 1.0 mph /  1.6 km/h   53 % 0.00 in /  0 mm
14:19 59.9 °F /  15.5 °C 42.2 °F /  5.7 °C 30.31 in /  1026.3 hPa East 2.3 mph /  3.7 km/h   52 % 0.00 in /  0 mm
14:24 60.1 °F /  15.6 °C 42.4 °F /  5.8 °C 30.31 in /  1026.3 hPa SE 2.0 mph /  3.2 km/h 2.0 mph /  3.2 km/h 52 % 0.00 in /  0 mm
14:29 60.1 °F /  15.6 °C 42.4 °F /  5.8 °C 30.31 in /  1026.3 hPa WNW 3.5 mph /  5.6 km/h 3.5 mph /  5.6 km/h 52 % 0.00 in /  0 mm
14:35 59.9 °F /  15.5 °C 42.2 °F /  5.7 °C 30.31 in /  1026.3 hPa SSW 1.2 mph /  1.9 km/h 1.2 mph /  1.9 km/h 52 % 0.00 in /  0 mm
14:39 60.0 °F /  15.6 °C 42.3 °F /  5.7 °C 30.31 in /  1026.3 hPa SSE 1.2 mph /  1.9 km/h 1.2 mph /  1.9 km/h 52 % 0.00 in /  0 mm
14:44 60.1 °F /  15.6 °C 42.9 °F /  6.1 °C 30.30 in /  1026 hPa Calm     53 % 0.00 in /  0 mm
14:50 59.9 °F /  15.5 °C 42.2 °F /  5.7 °C 30.30 in /  1026 hPa West 1.2 mph /  1.9 km/h 1.2 mph /  1.9 km/h 52 % 0.00 in /  0 mm
14:55 59.4 °F /  15.2 °C 42.7 °F /  5.9 °C 30.30 in /  1026 hPa NW 2.3 mph /  3.7 km/h 2.3 mph /  3.7 km/h 54 % 0.00 in /  0 mm
15:00 59.1 °F /  15.1 °C 42.5 °F /  5.8 °C 30.30 in /  1026 hPa Calm     54 % 0.00 in /  0 mm
15:05 59.2 °F /  15.1 °C 43.0 °F /  6.1 °C 30.31 in /  1026.3 hPa Calm     55 % 0.00 in /  0 mm
15:10 59.2 °F /  15.1 °C 42.6 °F /  5.9 °C 30.31 in /  1026.3 hPa NNW 1.2 mph /  1.9 km/h   54 % 0.00 in /  0 mm
15:15 59.2 °F /  15.1 °C 43.0 °F /  6.1 °C 30.30 in /  1026 hPa WSW 1.2 mph /  1.9 km/h 1.2 mph /  1.9 km/h 55 % 0.00 in /  0 mm
15:20 59.0 °F /  15 °C 42.4 °F /  5.8 °C 30.30 in /  1026 hPa SE 1.2 mph /  1.9 km/h 1.2 mph /  1.9 km/h 54 % 0.00 in /  0 mm
15:25 58.8 °F /  14.9 °C 42.2 °F /  5.7 °C 30.30 in /  1026 hPa NW 1.2 mph /  1.9 km/h   54 % 0.00 in /  0 mm
15:30 58.7 °F /  14.8 °C 42.6 °F /  5.9 °C 30.30 in /  1026 hPa WNW 1.2 mph /  1.9 km/h 1.2 mph /  1.9 km/h 55 % 0.00 in /  0 mm
15:35 58.5 °F /  14.7 °C 41.9 °F /  5.5 °C 30.30 in /  1026 hPa Calm     54 % 0.00 in /  0 mm
15:40 58.3 °F /  14.6 °C 42.2 °F /  5.7 °C 30.30 in /  1026 hPa Calm     55 % 0.00 in /  0 mm
15:45 58.4 °F /  14.7 °C 41.8 °F /  5.4 °C 30.30 in /  1026 hPa WSW 1.2 mph /  1.9 km/h   54 % 0.00 in /  0 mm
15:50 58.4 °F /  14.7 °C 41.8 °F /  5.4 °C 30.30 in /  1026 hPa Calm     54 % 0.00 in /  0 mm
15:55 58.3 °F /  14.6 °C 42.2 °F /  5.7 °C 30.30 in /  1026 hPa NW 1.2 mph /  1.9 km/h 1.2 mph /  1.9 km/h 55 % 0.00 in /  0 mm
16:00 58.3 °F /  14.6 °C 42.7 °F /  5.9 °C 30.30 in /  1026 hPa Calm     56 % 0.00 in /  0 mm
16:05 58.2 °F /  14.6 °C 42.6 °F /  5.9 °C 30.30 in /  1026 hPa Calm     56 % 0.00 in /  0 mm
16:10 58.1 °F /  14.5 °C 42.0 °F /  5.6 °C 30.30 in /  1026 hPa Calm     55 % 0.00 in /  0 mm
16:15 58.0 °F /  14.4 °C 41.9 °F /  5.5 °C 30.30 in /  1026 hPa Calm     55 % 0.00 in /  0 mm
16:20 57.8 °F /  14.3 °C 41.7 °F /  5.4 °C 30.30 in /  1026 hPa Calm     55 % 0.00 in /  0 mm
16:25 57.7 °F /  14.3 °C 41.6 °F /  5.3 °C 30.30 in /  1026 hPa Calm     55 % 0.00 in /  0 mm
16:30 57.6 °F /  14.2 °C 42.0 °F /  5.6 °C 30.30 in /  1026 hPa Calm     56 % 0.00 in /  0 mm
16:35 57.4 °F /  14.1 °C 42.3 °F /  5.7 °C 30.30 in /  1026 hPa Calm     57 % 0.00 in /  0 mm
16:40 57.1 °F /  13.9 °C 42.9 °F /  6.1 °C 30.30 in /  1026 hPa Calm     59 % 0.00 in /  0 mm
16:45 57.0 °F /  13.9 °C 42.8 °F /  6 °C 30.30 in /  1026 hPa Calm     59 % 0.00 in /  0 mm
16:50 56.7 °F /  13.7 °C 42.5 °F /  5.8 °C 30.30 in /  1026 hPa Calm     59 % 0.00 in /  0 mm
17:00 56.0 °F /  13.3 °C 43.2 °F /  6.2 °C 30.31 in /  1026.3 hPa Calm     62 % 0.00 in /  0 mm
17:15 54.3 °F /  12.4 °C 42.4 °F /  5.8 °C 30.31 in /  1026.3 hPa Calm     64 % 0.00 in /  0 mm
17:20 53.9 °F /  12.2 °C 42.8 °F /  6 °C 30.31 in /  1026.3 hPa Calm     66 % 0.00 in /  0 mm
17:25 53.5 °F /  11.9 °C 43.2 °F /  6.2 °C 30.31 in /  1026.3 hPa Calm     68 % 0.00 in /  0 mm
17:30 52.9 °F /  11.6 °C 43.4 °F /  6.3 °C 30.30 in /  1026 hPa Calm     70 % 0.00 in /  0 mm
17:35 52.4 °F /  11.3 °C 42.9 °F /  6.1 °C 30.30 in /  1026 hPa Calm     70 % 0.00 in /  0 mm
17:40 52.0 °F /  11.1 °C 42.9 °F /  6.1 °C 30.30 in /  1026 hPa Calm     71 % 0.00 in /  0 mm
17:45 51.5 °F /  10.8 °C 42.8 °F /  6 °C 30.30 in /  1026 hPa Calm     72 % 0.00 in /  0 mm
17:50 51.0 °F /  10.6 °C 43.0 °F /  6.1 °C 30.30 in /  1026 hPa Calm     74 % 0.00 in /  0 mm
17:55 50.6 °F /  10.3 °C 42.6 °F /  5.9 °C 30.31 in /  1026.3 hPa Calm     74 % 0.00 in /  0 mm
18:00 50.2 °F /  10.1 °C 42.6 °F /  5.9 °C 30.30 in /  1026 hPa Calm     75 % 0.00 in /  0 mm
18:05 50.1 °F /  10.1 °C 43.2 °F /  6.2 °C 30.30 in /  1026 hPa Calm     77 % 0.00 in /  0 mm
18:10 49.9 °F /  9.9 °C 43.0 °F /  6.1 °C 30.30 in /  1026 hPa Calm     77 % 0.00 in /  0 mm
18:20 49.5 °F /  9.7 °C 42.2 °F /  5.7 °C 30.30 in /  1026 hPa Calm     76 % 0.00 in /  0 mm
18:25 49.4 °F /  9.7 °C 42.8 °F /  6 °C 30.30 in /  1026 hPa Calm     78 % 0.00 in /  0 mm
18:35 48.8 °F /  9.3 °C 42.2 °F /  5.7 °C 30.30 in /  1026 hPa Calm     78 % 0.00 in /  0 mm
18:40 48.5 °F /  9.2 °C 42.3 °F /  5.7 °C 30.30 in /  1026 hPa Calm     79 % 0.00 in /  0 mm
18:45 48.1 °F /  8.9 °C 42.2 °F /  5.7 °C 30.30 in /  1026 hPa Calm     80 % 0.00 in /  0 mm
18:50 47.7 °F /  8.7 °C 41.8 °F /  5.4 °C 30.30 in /  1026 hPa Calm     80 % 0.00 in /  0 mm
18:55 47.4 °F /  8.6 °C 42.2 °F /  5.7 °C 30.30 in /  1026 hPa Calm     82 % 0.00 in /  0 mm
19:00 47.2 °F /  8.4 °C 42.0 °F /  5.6 °C 30.30 in /  1026 hPa Calm     82 % 0.00 in /  0 mm
19:15 46.8 °F /  8.2 °C 41.9 °F /  5.5 °C 30.29 in /  1025.6 hPa Calm     83 % 0.00 in /  0 mm
19:20 46.8 °F /  8.2 °C 41.6 °F /  5.3 °C 30.29 in /  1025.6 hPa Calm     82 % 0.00 in /  0 mm
19:25 46.6 °F /  8.1 °C 41.4 °F /  5.2 °C 30.29 in /  1025.6 hPa Calm     82 % 0.00 in /  0 mm
19:30 46.4 °F /  8 °C 41.5 °F /  5.3 °C 30.29 in /  1025.6 hPa Calm     83 % 0.00 in /  0 mm
19:35 46.3 °F /  7.9 °C 41.7 °F /  5.4 °C 30.29 in /  1025.6 hPa Calm     84 % 0.00 in /  0 mm
19:50 46.0 °F /  7.8 °C 41.4 °F /  5.2 °C 30.29 in /  1025.6 hPa Calm     84 % 0.00 in /  0 mm
19:55 45.9 °F /  7.7 °C 41.3 °F /  5.2 °C 30.29 in /  1025.6 hPa Calm     84 % 0.00 in /  0 mm
20:00 45.8 °F /  7.7 °C 41.2 °F /  5.1 °C 30.29 in /  1025.6 hPa Calm     84 % 0.00 in /  0 mm
20:05 45.7 °F /  7.6 °C 41.1 °F /  5.1 °C 30.29 in /  1025.6 hPa Calm     84 % 0.00 in /  0 mm
20:10 45.6 °F /  7.6 °C 41.4 °F /  5.2 °C 30.29 in /  1025.6 hPa Calm     85 % 0.00 in /  0 mm
20:15 45.3 °F /  7.4 °C 41.1 °F /  5.1 °C 30.29 in /  1025.6 hPa Calm     85 % 0.00 in /  0 mm
20:20 45.2 °F /  7.3 °C 41.0 °F /  5 °C 30.29 in /  1025.6 hPa Calm     85 % 0.00 in /  0 mm
20:25 45.1 °F /  7.3 °C 41.2 °F /  5.1 °C 30.30 in /  1026 hPa Calm     86 % 0.00 in /  0 mm
20:30 45.0 °F /  7.2 °C 41.1 °F /  5.1 °C 30.30 in /  1026 hPa Calm     86 % 0.00 in /  0 mm
20:40 44.2 °F /  6.8 °C 40.6 °F /  4.8 °C 30.30 in /  1026 hPa Calm     87 % 0.00 in /  0 mm
20:45 44.1 °F /  6.7 °C 40.5 °F /  4.7 °C 30.30 in /  1026 hPa Calm     87 % 0.00 in /  0 mm
20:55 43.8 °F /  6.6 °C 40.2 °F /  4.6 °C 30.30 in /  1026 hPa Calm     87 % 0.00 in /  0 mm
21:00 43.4 °F /  6.3 °C 40.1 °F /  4.5 °C 30.30 in /  1026 hPa Calm     88 % 0.00 in /  0 mm
21:05 43.2 °F /  6.2 °C 39.9 °F /  4.4 °C 30.30 in /  1026 hPa Calm     88 % 0.00 in /  0 mm
21:15 43.2 °F /  6.2 °C 40.2 °F /  4.6 °C 30.30 in /  1026 hPa Calm     89 % 0.00 in /  0 mm
21:20 43.6 °F /  6.4 °C 40.3 °F /  4.6 °C 30.30 in /  1026 hPa Calm     88 % 0.00 in /  0 mm
21:25 43.8 °F /  6.6 °C 40.5 °F /  4.7 °C 30.31 in /  1026.3 hPa Calm     88 % 0.00 in /  0 mm
21:30 44.0 °F /  6.7 °C 40.4 °F /  4.7 °C 30.31 in /  1026.3 hPa Calm     87 % 0.00 in /  0 mm
21:35 44.0 °F /  6.7 °C 40.1 °F /  4.5 °C 30.30 in /  1026 hPa Calm     86 % 0.00 in /  0 mm
21:40 44.0 °F /  6.7 °C 40.1 °F /  4.5 °C 30.31 in /  1026.3 hPa Calm     86 % 0.00 in /  0 mm
21:45 43.9 °F /  6.6 °C 40.0 °F /  4.4 °C 30.31 in /  1026.3 hPa Calm     86 % 0.00 in /  0 mm
21:50 43.7 °F /  6.5 °C 39.8 °F /  4.3 °C 30.31 in /  1026.3 hPa Calm     86 % 0.00 in /  0 mm
21:55 42.8 °F /  6 °C 38.6 °F /  3.7 °C 30.31 in /  1026.3 hPa Calm     85 % 0.00 in /  0 mm
22:00 42.2 °F /  5.7 °C 38.3 °F /  3.5 °C 30.31 in /  1026.3 hPa Calm     86 % 0.00 in /  0 mm
22:05 41.8 °F /  5.4 °C 38.2 °F /  3.4 °C 30.31 in /  1026.3 hPa Calm     87 % 0.00 in /  0 mm
22:10 41.4 °F /  5.2 °C 38.1 °F /  3.4 °C 30.31 in /  1026.3 hPa Calm     88 % 0.00 in /  0 mm
22:15 41.0 °F /  5 °C 38.0 °F /  3.3 °C 30.31 in /  1026.3 hPa Calm     89 % 0.00 in /  0 mm
22:20 40.9 °F /  4.9 °C 38.2 °F /  3.4 °C 30.32 in /  1026.6 hPa Calm     90 % 0.00 in /  0 mm
22:25 40.8 °F /  4.9 °C 38.1 °F /  3.4 °C 30.32 in /  1026.6 hPa Calm     90 % 0.00 in /  0 mm
22:30 40.7 °F /  4.8 °C 38.0 °F /  3.3 °C 30.32 in /  1026.6 hPa Calm     90 % 0.00 in /  0 mm
22:35 40.5 °F /  4.7 °C 37.8 °F /  3.2 °C 30.32 in /  1026.6 hPa Calm     90 % 0.00 in /  0 mm
22:40 40.3 °F /  4.6 °C 37.6 °F /  3.1 °C 30.32 in /  1026.6 hPa Calm     90 % 0.00 in /  0 mm
22:46 40.1 °F /  4.5 °C 37.7 °F /  3.2 °C 30.31 in /  1026.3 hPa Calm     91 % 0.00 in /  0 mm
22:51 40.0 °F /  4.4 °C 37.6 °F /  3.1 °C 30.31 in /  1026.3 hPa Calm     91 % 0.00 in /  0 mm
22:56 39.9 °F /  4.4 °C 37.5 °F /  3.1 °C 30.31 in /  1026.3 hPa Calm     91 % 0.00 in /  0 mm
23:06 40.1 °F /  4.5 °C 38.0 °F /  3.3 °C 30.31 in /  1026.3 hPa Calm     92 % 0.00 in /  0 mm
23:11 40.4 °F /  4.7 °C 38.3 °F /  3.5 °C 30.31 in /  1026.3 hPa Calm     92 % 0.00 in /  0 mm
23:16 40.7 °F /  4.8 °C 38.6 °F /  3.7 °C 30.31 in /  1026.3 hPa Calm     92 % 0.00 in /  0 mm
23:27 40.5 °F /  4.7 °C 37.8 °F /  3.2 °C 30.31 in /  1026.3 hPa Calm     90 % 0.00 in /  0 mm
23:32 40.5 °F /  4.7 °C 37.8 °F /  3.2 °C 30.31 in /  1026.3 hPa Calm     90 % 0.00 in /  0 mm
23:37 40.7 °F /  4.8 °C 38.3 °F /  3.5 °C 30.31 in /  1026.3 hPa Calm     91 % 0.00 in /  0 mm
23:42 40.9 °F /  4.9 °C 38.2 °F /  3.4 °C 30.31 in /  1026.3 hPa Calm     90 % 0.00 in /  0 mm
23:52 40.8 °F /  4.9 °C 38.4 °F /  3.6 °C 30.31 in /  1026.3 hPa Calm     91 % 0.00 in /  0 mm
23:57 41.1 °F /  5.1 °C 38.4 °F /  3.6 °C 30.31 in /  1026.3 hPa Calm     90 % 0.00 in /  0 mm
Park Place, Exeter, Tulare County, California, USA
Compliments of Weather Underground - 2.5 mb